sensor_id;sensor_type;location;lat;lon;timestamp;P1;durP1;ratioP1;P2;durP2;ratioP2
8317;SDS011;4196;48.926;8.964;2024-01-30T00:02:01;13.53;;;7.17;;
8317;SDS011;4196;48.926;8.964;2024-01-30T00:04:48;13.47;;;8.13;;
8317;SDS011;4196;48.926;8.964;2024-01-30T00:07:34;13.40;;;8.30;;
8317;SDS011;4196;48.926;8.964;2024-01-30T00:10:21;14.57;;;7.87;;
8317;SDS011;4196;48.926;8.964;2024-01-30T00:13:07;13.77;;;7.90;;
8317;SDS011;4196;48.926;8.964;2024-01-30T00:15:54;16.90;;;7.97;;
8317;SDS011;4196;48.926;8.964;2024-01-30T00:18:40;12.63;;;8.07;;
8317;SDS011;4196;48.926;8.964;2024-01-30T00:21:27;15.53;;;7.43;;
8317;SDS011;4196;48.926;8.964;2024-01-30T00:24:14;15.00;;;7.07;;
8317;SDS011;4196;48.926;8.964;2024-01-30T00:27:00;12.30;;;7.13;;
8317;SDS011;4196;48.926;8.964;2024-01-30T00:29:46;13.07;;;7.40;;
8317;SDS011;4196;48.926;8.964;2024-01-30T00:32:33;12.60;;;7.07;;
8317;SDS011;4196;48.926;8.964;2024-01-30T00:35:19;10.37;;;6.37;;
8317;SDS011;4196;48.926;8.964;2024-01-30T00:38:08;12.37;;;7.13;;
8317;SDS011;4196;48.926;8.964;2024-01-30T00:40:54;12.77;;;6.63;;
8317;SDS011;4196;48.926;8.964;2024-01-30T00:43:41;12.57;;;6.97;;
8317;SDS011;4196;48.926;8.964;2024-01-30T00:46:27;11.93;;;6.47;;
8317;SDS011;4196;48.926;8.964;2024-01-30T00:49:14;13.63;;;7.83;;
8317;SDS011;4196;48.926;8.964;2024-01-30T00:52:00;10.90;;;6.33;;
8317;SDS011;4196;48.926;8.964;2024-01-30T00:54:47;12.57;;;7.53;;
8317;SDS011;4196;48.926;8.964;2024-01-30T00:57:33;13.37;;;7.73;;
8317;SDS011;4196;48.926;8.964;2024-01-30T01:00:20;16.77;;;7.33;;
8317;SDS011;4196;48.926;8.964;2024-01-30T01:03:07;12.73;;;7.30;;
8317;SDS011;4196;48.926;8.964;2024-01-30T01:05:53;12.50;;;7.50;;
8317;SDS011;4196;48.926;8.964;2024-01-30T01:08:40;12.57;;;6.67;;
8317;SDS011;4196;48.926;8.964;2024-01-30T01:11:26;14.57;;;6.73;;
8317;SDS011;4196;48.926;8.964;2024-01-30T01:14:12;13.63;;;6.43;;
8317;SDS011;4196;48.926;8.964;2024-01-30T01:16:59;12.17;;;7.87;;
8317;SDS011;4196;48.926;8.964;2024-01-30T01:19:46;15.03;;;6.93;;
8317;SDS011;4196;48.926;8.964;2024-01-30T01:22:32;11.90;;;5.97;;
8317;SDS011;4196;48.926;8.964;2024-01-30T01:25:19;13.90;;;8.30;;
8317;SDS011;4196;48.926;8.964;2024-01-30T01:28:06;15.73;;;7.07;;
8317;SDS011;4196;48.926;8.964;2024-01-30T01:30:52;13.93;;;7.13;;
8317;SDS011;4196;48.926;8.964;2024-01-30T01:33:39;13.60;;;6.47;;
8317;SDS011;4196;48.926;8.964;2024-01-30T01:36:26;12.53;;;6.40;;
8317;SDS011;4196;48.926;8.964;2024-01-30T01:39:12;14.10;;;6.97;;
8317;SDS011;4196;48.926;8.964;2024-01-30T01:41:59;12.50;;;6.83;;
8317;SDS011;4196;48.926;8.964;2024-01-30T01:44:45;12.83;;;7.50;;
8317;SDS011;4196;48.926;8.964;2024-01-30T01:47:32;12.63;;;7.13;;
8317;SDS011;4196;48.926;8.964;2024-01-30T01:50:18;15.07;;;7.87;;
8317;SDS011;4196;48.926;8.964;2024-01-30T01:53:07;15.07;;;7.20;;
8317;SDS011;4196;48.926;8.964;2024-01-30T01:55:54;13.53;;;6.93;;
8317;SDS011;4196;48.926;8.964;2024-01-30T01:58:41;11.37;;;7.00;;
8317;SDS011;4196;48.926;8.964;2024-01-30T02:01:29;12.97;;;7.67;;
8317;SDS011;4196;48.926;8.964;2024-01-30T02:04:18;11.67;;;6.23;;
8317;SDS011;4196;48.926;8.964;2024-01-30T02:07:05;11.80;;;6.53;;
8317;SDS011;4196;48.926;8.964;2024-01-30T02:09:52;9.67;;;6.47;;
8317;SDS011;4196;48.926;8.964;2024-01-30T02:12:39;11.87;;;6.57;;
8317;SDS011;4196;48.926;8.964;2024-01-30T02:15:26;11.97;;;6.77;;
8317;SDS011;4196;48.926;8.964;2024-01-30T02:18:12;15.70;;;6.63;;
8317;SDS011;4196;48.926;8.964;2024-01-30T02:20:59;34.43;;;7.90;;
8317;SDS011;4196;48.926;8.964;2024-01-30T02:23:50;11.57;;;7.27;;
8317;SDS011;4196;48.926;8.964;2024-01-30T02:26:37;12.80;;;7.53;;
8317;SDS011;4196;48.926;8.964;2024-01-30T02:29:23;12.63;;;6.73;;
8317;SDS011;4196;48.926;8.964;2024-01-30T02:32:10;10.87;;;7.50;;
8317;SDS011;4196;48.926;8.964;2024-01-30T02:34:56;16.50;;;7.57;;
8317;SDS011;4196;48.926;8.964;2024-01-30T02:37:43;8.50;;;6.60;;
8317;SDS011;4196;48.926;8.964;2024-01-30T02:40:29;12.10;;;6.90;;
8317;SDS011;4196;48.926;8.964;2024-01-30T02:43:16;12.30;;;7.83;;
8317;SDS011;4196;48.926;8.964;2024-01-30T02:46:02;11.07;;;6.90;;
8317;SDS011;4196;48.926;8.964;2024-01-30T02:48:49;13.93;;;7.03;;
8317;SDS011;4196;48.926;8.964;2024-01-30T02:51:35;12.43;;;6.80;;
8317;SDS011;4196;48.926;8.964;2024-01-30T02:54:22;12.10;;;6.60;;
8317;SDS011;4196;48.926;8.964;2024-01-30T02:57:09;11.63;;;7.27;;
8317;SDS011;4196;48.926;8.964;2024-01-30T02:59:55;12.73;;;8.20;;
8317;SDS011;4196;48.926;8.964;2024-01-30T03:02:41;9.90;;;6.23;;
8317;SDS011;4196;48.926;8.964;2024-01-30T03:05:28;10.50;;;7.03;;
8317;SDS011;4196;48.926;8.964;2024-01-30T03:08:14;13.57;;;7.40;;
8317;SDS011;4196;48.926;8.964;2024-01-30T03:11:01;17.57;;;7.13;;
8317;SDS011;4196;48.926;8.964;2024-01-30T03:13:47;13.87;;;7.97;;
8317;SDS011;4196;48.926;8.964;2024-01-30T03:16:34;11.07;;;7.00;;
8317;SDS011;4196;48.926;8.964;2024-01-30T03:19:20;12.83;;;7.50;;
8317;SDS011;4196;48.926;8.964;2024-01-30T03:22:07;15.27;;;8.53;;
8317;SDS011;4196;48.926;8.964;2024-01-30T03:24:54;13.10;;;7.13;;
8317;SDS011;4196;48.926;8.964;2024-01-30T03:27:40;12.33;;;7.47;;
8317;SDS011;4196;48.926;8.964;2024-01-30T03:30:27;11.40;;;7.33;;
8317;SDS011;4196;48.926;8.964;2024-01-30T03:33:13;10.97;;;7.53;;
8317;SDS011;4196;48.926;8.964;2024-01-30T03:36:03;9.07;;;6.50;;
8317;SDS011;4196;48.926;8.964;2024-01-30T03:38:50;12.20;;;7.50;;
8317;SDS011;4196;48.926;8.964;2024-01-30T03:41:37;9.30;;;6.57;;
8317;SDS011;4196;48.926;8.964;2024-01-30T03:44:23;9.87;;;6.80;;
8317;SDS011;4196;48.926;8.964;2024-01-30T03:47:10;12.80;;;7.20;;
8317;SDS011;4196;48.926;8.964;2024-01-30T03:49:57;12.93;;;7.83;;
8317;SDS011;4196;48.926;8.964;2024-01-30T03:52:43;12.37;;;7.57;;
8317;SDS011;4196;48.926;8.964;2024-01-30T03:55:30;11.50;;;7.77;;
8317;SDS011;4196;48.926;8.964;2024-01-30T03:58:16;10.77;;;6.77;;
8317;SDS011;4196;48.926;8.964;2024-01-30T04:01:03;10.87;;;7.30;;
8317;SDS011;4196;48.926;8.964;2024-01-30T04:03:50;11.47;;;7.30;;
8317;SDS011;4196;48.926;8.964;2024-01-30T04:06:36;9.73;;;6.07;;
8317;SDS011;4196;48.926;8.964;2024-01-30T04:09:23;12.27;;;6.90;;
8317;SDS011;4196;48.926;8.964;2024-01-30T04:12:10;14.20;;;7.33;;
8317;SDS011;4196;48.926;8.964;2024-01-30T04:14:56;13.03;;;7.87;;
8317;SDS011;4196;48.926;8.964;2024-01-30T04:17:42;13.10;;;6.80;;
8317;SDS011;4196;48.926;8.964;2024-01-30T04:20:29;10.23;;;6.87;;
8317;SDS011;4196;48.926;8.964;2024-01-30T04:23:15;11.93;;;7.63;;
8317;SDS011;4196;48.926;8.964;2024-01-30T04:26:02;14.30;;;6.50;;
8317;SDS011;4196;48.926;8.964;2024-01-30T04:28:48;11.97;;;7.30;;
8317;SDS011;4196;48.926;8.964;2024-01-30T04:31:36;9.83;;;6.43;;
8317;SDS011;4196;48.926;8.964;2024-01-30T04:34:22;13.33;;;6.13;;
8317;SDS011;4196;48.926;8.964;2024-01-30T04:37:09;9.33;;;6.27;;
8317;SDS011;4196;48.926;8.964;2024-01-30T04:39:56;11.83;;;6.23;;
8317;SDS011;4196;48.926;8.964;2024-01-30T04:42:42;12.37;;;6.40;;
8317;SDS011;4196;48.926;8.964;2024-01-30T04:45:29;10.83;;;5.93;;
8317;SDS011;4196;48.926;8.964;2024-01-30T04:48:16;9.67;;;5.87;;
8317;SDS011;4196;48.926;8.964;2024-01-30T04:51:03;11.07;;;6.73;;
8317;SDS011;4196;48.926;8.964;2024-01-30T04:53:50;11.73;;;6.00;;
8317;SDS011;4196;48.926;8.964;2024-01-30T04:56:37;9.77;;;6.20;;
8317;SDS011;4196;48.926;8.964;2024-01-30T04:59:23;14.23;;;6.83;;
8317;SDS011;4196;48.926;8.964;2024-01-30T05:02:10;10.57;;;6.60;;
8317;SDS011;4196;48.926;8.964;2024-01-30T05:04:56;15.27;;;7.73;;
8317;SDS011;4196;48.926;8.964;2024-01-30T05:07:44;10.83;;;6.13;;
8317;SDS011;4196;48.926;8.964;2024-01-30T05:10:30;15.50;;;7.17;;
8317;SDS011;4196;48.926;8.964;2024-01-30T05:13:17;12.93;;;8.20;;
8317;SDS011;4196;48.926;8.964;2024-01-30T05:16:03;11.20;;;6.53;;
8317;SDS011;4196;48.926;8.964;2024-01-30T05:18:50;17.13;;;8.37;;
8317;SDS011;4196;48.926;8.964;2024-01-30T05:21:36;13.13;;;7.90;;
8317;SDS011;4196;48.926;8.964;2024-01-30T05:24:23;10.50;;;6.33;;
8317;SDS011;4196;48.926;8.964;2024-01-30T05:27:12;14.23;;;7.93;;
8317;SDS011;4196;48.926;8.964;2024-01-30T05:30:02;13.47;;;6.63;;
8317;SDS011;4196;48.926;8.964;2024-01-30T05:32:49;9.57;;;6.43;;
8317;SDS011;4196;48.926;8.964;2024-01-30T05:35:36;10.10;;;6.33;;
8317;SDS011;4196;48.926;8.964;2024-01-30T05:38:22;10.93;;;6.10;;
8317;SDS011;4196;48.926;8.964;2024-01-30T05:41:09;12.73;;;6.30;;
8317;SDS011;4196;48.926;8.964;2024-01-30T05:43:55;9.87;;;5.53;;
8317;SDS011;4196;48.926;8.964;2024-01-30T05:46:41;12.20;;;6.10;;
8317;SDS011;4196;48.926;8.964;2024-01-30T05:49:28;11.33;;;6.73;;
8317;SDS011;4196;48.926;8.964;2024-01-30T05:52:15;12.67;;;6.97;;
8317;SDS011;4196;48.926;8.964;2024-01-30T05:55:02;10.70;;;7.00;;
8317;SDS011;4196;48.926;8.964;2024-01-30T05:57:49;10.50;;;7.30;;
8317;SDS011;4196;48.926;8.964;2024-01-30T06:00:36;11.30;;;6.80;;
8317;SDS011;4196;48.926;8.964;2024-01-30T06:03:23;12.30;;;7.03;;
8317;SDS011;4196;48.926;8.964;2024-01-30T06:06:10;9.47;;;6.27;;
8317;SDS011;4196;48.926;8.964;2024-01-30T06:08:56;13.43;;;7.80;;
8317;SDS011;4196;48.926;8.964;2024-01-30T06:11:43;14.60;;;8.07;;
8317;SDS011;4196;48.926;8.964;2024-01-30T06:14:29;15.23;;;7.77;;
8317;SDS011;4196;48.926;8.964;2024-01-30T06:17:16;12.57;;;7.60;;
8317;SDS011;4196;48.926;8.964;2024-01-30T06:20:03;12.63;;;7.67;;
8317;SDS011;4196;48.926;8.964;2024-01-30T06:22:50;12.13;;;7.10;;
8317;SDS011;4196;48.926;8.964;2024-01-30T06:25:36;11.60;;;7.33;;
8317;SDS011;4196;48.926;8.964;2024-01-30T06:28:23;12.80;;;7.27;;
8317;SDS011;4196;48.926;8.964;2024-01-30T06:36:07;15.37;;;7.40;;
8317;SDS011;4196;48.926;8.964;2024-01-30T06:38:53;12.77;;;7.97;;
8317;SDS011;4196;48.926;8.964;2024-01-30T06:41:39;13.17;;;7.70;;
8317;SDS011;4196;48.926;8.964;2024-01-30T06:44:26;12.17;;;8.83;;
8317;SDS011;4196;48.926;8.964;2024-01-30T06:47:15;13.23;;;7.60;;
8317;SDS011;4196;48.926;8.964;2024-01-30T06:50:02;13.80;;;7.60;;
8317;SDS011;4196;48.926;8.964;2024-01-30T06:52:49;15.50;;;7.20;;
8317;SDS011;4196;48.926;8.964;2024-01-30T06:55:36;15.73;;;8.50;;
8317;SDS011;4196;48.926;8.964;2024-01-30T06:58:22;10.50;;;6.87;;
8317;SDS011;4196;48.926;8.964;2024-01-30T07:01:09;15.27;;;8.70;;
8317;SDS011;4196;48.926;8.964;2024-01-30T07:03:57;14.37;;;7.73;;
8317;SDS011;4196;48.926;8.964;2024-01-30T07:06:44;15.20;;;7.80;;
8317;SDS011;4196;48.926;8.964;2024-01-30T07:09:30;14.83;;;7.93;;
8317;SDS011;4196;48.926;8.964;2024-01-30T07:12:17;15.10;;;7.70;;
8317;SDS011;4196;48.926;8.964;2024-01-30T07:15:04;15.40;;;7.57;;
8317;SDS011;4196;48.926;8.964;2024-01-30T07:17:53;15.63;;;8.20;;
8317;SDS011;4196;48.926;8.964;2024-01-30T07:20:40;12.87;;;7.23;;
8317;SDS011;4196;48.926;8.964;2024-01-30T07:23:32;14.20;;;8.03;;
8317;SDS011;4196;48.926;8.964;2024-01-30T07:26:20;12.73;;;7.43;;
8317;SDS011;4196;48.926;8.964;2024-01-30T07:29:06;14.50;;;8.53;;
8317;SDS011;4196;48.926;8.964;2024-01-30T07:31:53;14.10;;;8.27;;
8317;SDS011;4196;48.926;8.964;2024-01-30T07:34:39;13.40;;;8.60;;
8317;SDS011;4196;48.926;8.964;2024-01-30T07:37:43;16.93;;;9.40;;
8317;SDS011;4196;48.926;8.964;2024-01-30T07:40:30;15.33;;;9.23;;
8317;SDS011;4196;48.926;8.964;2024-01-30T07:43:17;15.70;;;8.93;;
8317;SDS011;4196;48.926;8.964;2024-01-30T07:46:03;16.37;;;10.43;;
8317;SDS011;4196;48.926;8.964;2024-01-30T07:48:52;17.90;;;11.03;;
8317;SDS011;4196;48.926;8.964;2024-01-30T07:51:40;17.30;;;9.77;;
8317;SDS011;4196;48.926;8.964;2024-01-30T07:54:27;17.50;;;9.70;;
8317;SDS011;4196;48.926;8.964;2024-01-30T07:57:14;18.97;;;9.77;;
8317;SDS011;4196;48.926;8.964;2024-01-30T08:00:01;15.23;;;9.80;;
8317;SDS011;4196;48.926;8.964;2024-01-30T08:02:52;20.20;;;8.80;;
8317;SDS011;4196;48.926;8.964;2024-01-30T08:05:37;12.80;;;9.17;;
8317;SDS011;4196;48.926;8.964;2024-01-30T08:08:25;13.57;;;7.97;;
8317;SDS011;4196;48.926;8.964;2024-01-30T08:11:13;17.13;;;9.57;;
8317;SDS011;4196;48.926;8.964;2024-01-30T08:13:59;18.57;;;9.90;;
8317;SDS011;4196;48.926;8.964;2024-01-30T08:16:46;16.50;;;9.87;;
8317;SDS011;4196;48.926;8.964;2024-01-30T08:19:32;17.70;;;7.83;;
8317;SDS011;4196;48.926;8.964;2024-01-30T08:22:19;11.83;;;7.33;;
8317;SDS011;4196;48.926;8.964;2024-01-30T08:25:06;17.10;;;9.57;;
8317;SDS011;4196;48.926;8.964;2024-01-30T08:27:53;10.90;;;7.57;;
8317;SDS011;4196;48.926;8.964;2024-01-30T08:30:39;12.13;;;6.50;;
8317;SDS011;4196;48.926;8.964;2024-01-30T08:33:26;9.73;;;7.07;;
8317;SDS011;4196;48.926;8.964;2024-01-30T08:36:12;11.77;;;6.30;;
8317;SDS011;4196;48.926;8.964;2024-01-30T08:38:59;10.33;;;6.70;;
8317;SDS011;4196;48.926;8.964;2024-01-30T08:41:50;10.70;;;6.87;;
8317;SDS011;4196;48.926;8.964;2024-01-30T08:44:36;13.07;;;8.47;;
8317;SDS011;4196;48.926;8.964;2024-01-30T08:47:22;13.30;;;8.47;;
8317;SDS011;4196;48.926;8.964;2024-01-30T08:50:09;13.50;;;7.93;;
8317;SDS011;4196;48.926;8.964;2024-01-30T08:52:56;12.13;;;7.33;;
8317;SDS011;4196;48.926;8.964;2024-01-30T08:55:43;10.53;;;7.60;;
8317;SDS011;4196;48.926;8.964;2024-01-30T08:58:33;15.07;;;7.60;;
8317;SDS011;4196;48.926;8.964;2024-01-30T09:01:21;13.80;;;7.50;;
8317;SDS011;4196;48.926;8.964;2024-01-30T09:04:08;9.23;;;5.90;;
8317;SDS011;4196;48.926;8.964;2024-01-30T09:06:55;8.73;;;6.37;;
8317;SDS011;4196;48.926;8.964;2024-01-30T09:13:48;10.30;;;6.10;;
8317;SDS011;4196;48.926;8.964;2024-01-30T09:16:54;9.20;;;6.00;;
8317;SDS011;4196;48.926;8.964;2024-01-30T09:20:00;8.40;;;5.10;;
8317;SDS011;4196;48.926;8.964;2024-01-30T09:22:47;6.93;;;4.80;;
8317;SDS011;4196;48.926;8.964;2024-01-30T09:25:36;9.73;;;5.90;;
8317;SDS011;4196;48.926;8.964;2024-01-30T09:28:23;7.37;;;5.13;;
8317;SDS011;4196;48.926;8.964;2024-01-30T09:31:13;8.33;;;5.40;;
8317;SDS011;4196;48.926;8.964;2024-01-30T09:34:12;10.53;;;6.87;;
8317;SDS011;4196;48.926;8.964;2024-01-30T09:37:00;10.43;;;5.90;;
8317;SDS011;4196;48.926;8.964;2024-01-30T09:39:50;11.93;;;6.40;;
8317;SDS011;4196;48.926;8.964;2024-01-30T09:42:36;8.70;;;6.07;;
8317;SDS011;4196;48.926;8.964;2024-01-30T09:45:25;10.53;;;6.57;;
8317;SDS011;4196;48.926;8.964;2024-01-30T09:48:17;14.23;;;7.57;;
8317;SDS011;4196;48.926;8.964;2024-01-30T09:51:04;12.17;;;6.63;;
8317;SDS011;4196;48.926;8.964;2024-01-30T09:53:54;10.17;;;7.00;;
8317;SDS011;4196;48.926;8.964;2024-01-30T09:56:41;9.43;;;6.47;;
8317;SDS011;4196;48.926;8.964;2024-01-30T09:59:28;9.37;;;5.97;;
8317;SDS011;4196;48.926;8.964;2024-01-30T10:02:15;11.10;;;6.43;;
8317;SDS011;4196;48.926;8.964;2024-01-30T10:05:01;10.13;;;6.83;;
8317;SDS011;4196;48.926;8.964;2024-01-30T10:07:55;11.90;;;7.63;;
8317;SDS011;4196;48.926;8.964;2024-01-30T10:10:45;12.33;;;6.67;;
8317;SDS011;4196;48.926;8.964;2024-01-30T10:13:33;11.50;;;6.60;;
8317;SDS011;4196;48.926;8.964;2024-01-30T10:16:20;9.83;;;6.27;;
8317;SDS011;4196;48.926;8.964;2024-01-30T10:19:07;8.57;;;5.90;;
8317;SDS011;4196;48.926;8.964;2024-01-30T10:21:54;13.23;;;7.10;;
8317;SDS011;4196;48.926;8.964;2024-01-30T10:24:44;10.47;;;6.70;;
8317;SDS011;4196;48.926;8.964;2024-01-30T10:27:35;15.27;;;8.87;;
8317;SDS011;4196;48.926;8.964;2024-01-30T10:30:22;11.23;;;6.87;;
8317;SDS011;4196;48.926;8.964;2024-01-30T10:33:09;11.17;;;6.10;;
8317;SDS011;4196;48.926;8.964;2024-01-30T10:36:03;12.23;;;7.70;;
8317;SDS011;4196;48.926;8.964;2024-01-30T10:38:52;12.77;;;8.00;;
8317;SDS011;4196;48.926;8.964;2024-01-30T10:41:46;8.33;;;5.90;;
8317;SDS011;4196;48.926;8.964;2024-01-30T10:47:55;12.23;;;7.03;;
8317;SDS011;4196;48.926;8.964;2024-01-30T10:50:44;9.47;;;6.87;;
8317;SDS011;4196;48.926;8.964;2024-01-30T10:53:43;11.60;;;6.73;;
8317;SDS011;4196;48.926;8.964;2024-01-30T10:56:33;10.93;;;6.53;;
8317;SDS011;4196;48.926;8.964;2024-01-30T10:59:21;11.67;;;6.90;;
8317;SDS011;4196;48.926;8.964;2024-01-30T11:02:10;8.67;;;6.30;;
8317;SDS011;4196;48.926;8.964;2024-01-30T11:04:58;12.13;;;6.50;;
8317;SDS011;4196;48.926;8.964;2024-01-30T11:07:46;10.63;;;6.73;;
8317;SDS011;4196;48.926;8.964;2024-01-30T11:10:32;12.97;;;8.00;;
8317;SDS011;4196;48.926;8.964;2024-01-30T11:13:19;11.47;;;7.70;;
8317;SDS011;4196;48.926;8.964;2024-01-30T11:16:06;12.93;;;7.20;;
8317;SDS011;4196;48.926;8.964;2024-01-30T11:18:52;11.37;;;7.20;;
8317;SDS011;4196;48.926;8.964;2024-01-30T11:21:42;11.03;;;7.60;;
8317;SDS011;4196;48.926;8.964;2024-01-30T11:24:28;9.37;;;6.47;;
8317;SDS011;4196;48.926;8.964;2024-01-30T11:27:15;11.17;;;7.00;;
8317;SDS011;4196;48.926;8.964;2024-01-30T11:30:03;11.87;;;7.10;;
8317;SDS011;4196;48.926;8.964;2024-01-30T11:33:06;9.83;;;7.50;;
8317;SDS011;4196;48.926;8.964;2024-01-30T11:35:58;14.27;;;7.60;;
8317;SDS011;4196;48.926;8.964;2024-01-30T11:38:48;17.07;;;8.93;;
8317;SDS011;4196;48.926;8.964;2024-01-30T11:41:34;14.60;;;10.33;;
8317;SDS011;4196;48.926;8.964;2024-01-30T11:44:23;18.40;;;10.40;;
8317;SDS011;4196;48.926;8.964;2024-01-30T11:47:10;18.00;;;11.47;;
8317;SDS011;4196;48.926;8.964;2024-01-30T11:49:56;12.87;;;8.33;;
8317;SDS011;4196;48.926;8.964;2024-01-30T11:52:46;12.80;;;8.27;;
8317;SDS011;4196;48.926;8.964;2024-01-30T11:55:34;14.50;;;7.43;;
8317;SDS011;4196;48.926;8.964;2024-01-30T11:58:24;57.23;;;11.77;;
8317;SDS011;4196;48.926;8.964;2024-01-30T12:01:12;10.37;;;6.20;;
8317;SDS011;4196;48.926;8.964;2024-01-30T12:03:59;13.07;;;6.87;;
8317;SDS011;4196;48.926;8.964;2024-01-30T12:06:46;13.60;;;6.87;;
8317;SDS011;4196;48.926;8.964;2024-01-30T12:09:37;17.70;;;7.80;;
8317;SDS011;4196;48.926;8.964;2024-01-30T12:12:27;10.87;;;6.90;;
8317;SDS011;4196;48.926;8.964;2024-01-30T12:15:15;15.47;;;7.17;;
8317;SDS011;4196;48.926;8.964;2024-01-30T12:18:06;14.13;;;8.17;;
8317;SDS011;4196;48.926;8.964;2024-01-30T12:20:57;17.67;;;8.30;;
8317;SDS011;4196;48.926;8.964;2024-01-30T12:23:47;10.50;;;7.67;;
8317;SDS011;4196;48.926;8.964;2024-01-30T12:26:33;19.23;;;8.70;;
8317;SDS011;4196;48.926;8.964;2024-01-30T12:29:20;10.43;;;7.63;;
8317;SDS011;4196;48.926;8.964;2024-01-30T12:32:08;11.67;;;7.23;;
8317;SDS011;4196;48.926;8.964;2024-01-30T12:34:55;12.63;;;8.30;;
8317;SDS011;4196;48.926;8.964;2024-01-30T12:37:47;13.73;;;8.00;;
8317;SDS011;4196;48.926;8.964;2024-01-30T12:40:34;12.53;;;8.00;;
8317;SDS011;4196;48.926;8.964;2024-01-30T12:43:24;13.50;;;8.17;;
8317;SDS011;4196;48.926;8.964;2024-01-30T12:46:29;11.97;;;7.83;;
8317;SDS011;4196;48.926;8.964;2024-01-30T12:49:16;15.10;;;10.10;;
8317;SDS011;4196;48.926;8.964;2024-01-30T12:52:03;12.33;;;7.67;;
8317;SDS011;4196;48.926;8.964;2024-01-30T12:54:50;10.03;;;6.90;;
8317;SDS011;4196;48.926;8.964;2024-01-30T12:57:37;9.63;;;7.20;;
8317;SDS011;4196;48.926;8.964;2024-01-30T13:00:25;11.00;;;7.23;;
8317;SDS011;4196;48.926;8.964;2024-01-30T13:03:11;13.53;;;7.57;;
8317;SDS011;4196;48.926;8.964;2024-01-30T13:05:58;17.90;;;8.43;;
8317;SDS011;4196;48.926;8.964;2024-01-30T13:08:45;14.57;;;7.20;;
8317;SDS011;4196;48.926;8.964;2024-01-30T13:11:33;10.43;;;6.50;;
8317;SDS011;4196;48.926;8.964;2024-01-30T13:14:20;10.63;;;7.17;;
8317;SDS011;4196;48.926;8.964;2024-01-30T13:17:06;11.77;;;6.33;;
8317;SDS011;4196;48.926;8.964;2024-01-30T13:19:53;10.60;;;6.53;;
8317;SDS011;4196;48.926;8.964;2024-01-30T13:22:47;9.77;;;6.23;;
8317;SDS011;4196;48.926;8.964;2024-01-30T13:25:36;10.40;;;7.27;;
8317;SDS011;4196;48.926;8.964;2024-01-30T13:28:24;11.20;;;6.20;;
8317;SDS011;4196;48.926;8.964;2024-01-30T13:31:12;9.83;;;6.33;;
8317;SDS011;4196;48.926;8.964;2024-01-30T13:34:00;12.23;;;6.80;;
8317;SDS011;4196;48.926;8.964;2024-01-30T13:36:50;7.73;;;6.17;;
8317;SDS011;4196;48.926;8.964;2024-01-30T13:39:44;10.47;;;6.53;;
8317;SDS011;4196;48.926;8.964;2024-01-30T13:42:31;15.63;;;7.47;;
8317;SDS011;4196;48.926;8.964;2024-01-30T13:45:18;10.43;;;6.70;;
8317;SDS011;4196;48.926;8.964;2024-01-30T13:48:09;13.93;;;7.43;;
8317;SDS011;4196;48.926;8.964;2024-01-30T13:50:59;16.70;;;8.13;;
8317;SDS011;4196;48.926;8.964;2024-01-30T13:53:48;8.87;;;6.50;;
8317;SDS011;4196;48.926;8.964;2024-01-30T13:56:38;10.83;;;6.50;;
8317;SDS011;4196;48.926;8.964;2024-01-30T13:59:29;12.53;;;7.20;;
8317;SDS011;4196;48.926;8.964;2024-01-30T14:02:16;10.97;;;5.90;;
8317;SDS011;4196;48.926;8.964;2024-01-30T14:05:03;11.53;;;7.03;;
8317;SDS011;4196;48.926;8.964;2024-01-30T14:07:51;12.40;;;7.13;;
8317;SDS011;4196;48.926;8.964;2024-01-30T14:10:38;8.00;;;5.97;;
8317;SDS011;4196;48.926;8.964;2024-01-30T14:13:25;9.33;;;6.13;;
8317;SDS011;4196;48.926;8.964;2024-01-30T14:16:12;12.83;;;6.73;;
8317;SDS011;4196;48.926;8.964;2024-01-30T14:18:58;11.43;;;6.67;;
8317;SDS011;4196;48.926;8.964;2024-01-30T14:21:45;10.10;;;6.60;;
8317;SDS011;4196;48.926;8.964;2024-01-30T14:24:31;10.03;;;6.70;;
8317;SDS011;4196;48.926;8.964;2024-01-30T14:27:18;10.27;;;6.30;;
8317;SDS011;4196;48.926;8.964;2024-01-30T14:30:05;11.00;;;6.30;;
8317;SDS011;4196;48.926;8.964;2024-01-30T14:32:51;8.80;;;5.83;;
8317;SDS011;4196;48.926;8.964;2024-01-30T14:35:38;13.63;;;7.07;;
8317;SDS011;4196;48.926;8.964;2024-01-30T14:38:25;10.60;;;6.07;;
8317;SDS011;4196;48.926;8.964;2024-01-30T14:41:11;11.87;;;6.27;;
8317;SDS011;4196;48.926;8.964;2024-01-30T14:43:58;11.77;;;6.20;;
8317;SDS011;4196;48.926;8.964;2024-01-30T14:46:44;12.00;;;6.93;;
8317;SDS011;4196;48.926;8.964;2024-01-30T14:49:31;8.93;;;5.70;;
8317;SDS011;4196;48.926;8.964;2024-01-30T14:52:18;12.20;;;6.83;;
8317;SDS011;4196;48.926;8.964;2024-01-30T14:55:04;8.77;;;5.43;;
8317;SDS011;4196;48.926;8.964;2024-01-30T14:57:51;11.77;;;5.87;;
8317;SDS011;4196;48.926;8.964;2024-01-30T15:00:38;11.47;;;5.70;;
8317;SDS011;4196;48.926;8.964;2024-01-30T15:03:26;9.93;;;5.93;;
8317;SDS011;4196;48.926;8.964;2024-01-30T15:06:15;10.37;;;6.57;;
8317;SDS011;4196;48.926;8.964;2024-01-30T15:09:01;10.93;;;6.57;;
8317;SDS011;4196;48.926;8.964;2024-01-30T15:11:48;7.57;;;5.37;;
8317;SDS011;4196;48.926;8.964;2024-01-30T15:14:36;9.23;;;7.00;;
8317;SDS011;4196;48.926;8.964;2024-01-30T15:17:25;11.97;;;6.43;;
8317;SDS011;4196;48.926;8.964;2024-01-30T15:20:14;8.57;;;6.20;;
8317;SDS011;4196;48.926;8.964;2024-01-30T15:23:01;11.47;;;6.10;;
8317;SDS011;4196;48.926;8.964;2024-01-30T15:25:48;8.10;;;5.97;;
8317;SDS011;4196;48.926;8.964;2024-01-30T15:28:36;11.17;;;6.17;;
8317;SDS011;4196;48.926;8.964;2024-01-30T15:31:23;7.93;;;6.43;;
8317;SDS011;4196;48.926;8.964;2024-01-30T15:34:10;9.53;;;6.00;;
8317;SDS011;4196;48.926;8.964;2024-01-30T15:36:56;10.93;;;7.90;;
8317;SDS011;4196;48.926;8.964;2024-01-30T15:39:43;19.10;;;10.07;;
8317;SDS011;4196;48.926;8.964;2024-01-30T15:42:30;19.47;;;9.67;;
8317;SDS011;4196;48.926;8.964;2024-01-30T15:45:16;14.30;;;8.67;;
8317;SDS011;4196;48.926;8.964;2024-01-30T15:48:03;13.30;;;7.90;;
8317;SDS011;4196;48.926;8.964;2024-01-30T15:50:50;15.03;;;8.50;;
8317;SDS011;4196;48.926;8.964;2024-01-30T15:53:36;17.70;;;9.17;;
8317;SDS011;4196;48.926;8.964;2024-01-30T15:56:23;13.83;;;8.37;;
8317;SDS011;4196;48.926;8.964;2024-01-30T15:59:09;17.63;;;8.40;;
8317;SDS011;4196;48.926;8.964;2024-01-30T16:01:56;14.57;;;8.10;;
8317;SDS011;4196;48.926;8.964;2024-01-30T16:04:46;10.00;;;7.33;;
8317;SDS011;4196;48.926;8.964;2024-01-30T16:07:38;13.27;;;8.63;;
8317;SDS011;4196;48.926;8.964;2024-01-30T16:10:28;13.90;;;7.50;;
8317;SDS011;4196;48.926;8.964;2024-01-30T16:13:19;13.43;;;7.83;;
8317;SDS011;4196;48.926;8.964;2024-01-30T16:16:08;16.30;;;9.80;;
8317;SDS011;4196;48.926;8.964;2024-01-30T16:18:55;14.27;;;8.17;;
8317;SDS011;4196;48.926;8.964;2024-01-30T16:21:53;13.30;;;7.53;;
8317;SDS011;4196;48.926;8.964;2024-01-30T16:24:41;19.30;;;7.97;;
8317;SDS011;4196;48.926;8.964;2024-01-30T16:27:28;15.73;;;8.67;;
8317;SDS011;4196;48.926;8.964;2024-01-30T16:30:14;16.37;;;8.53;;
8317;SDS011;4196;48.926;8.964;2024-01-30T16:33:04;17.33;;;9.27;;
8317;SDS011;4196;48.926;8.964;2024-01-30T16:35:51;15.67;;;8.30;;
8317;SDS011;4196;48.926;8.964;2024-01-30T16:38:40;20.60;;;10.20;;
8317;SDS011;4196;48.926;8.964;2024-01-30T16:41:28;18.43;;;11.10;;
8317;SDS011;4196;48.926;8.964;2024-01-30T16:44:19;15.60;;;9.53;;
8317;SDS011;4196;48.926;8.964;2024-01-30T16:47:08;18.07;;;9.70;;
8317;SDS011;4196;48.926;8.964;2024-01-30T16:49:55;15.00;;;9.67;;
8317;SDS011;4196;48.926;8.964;2024-01-30T16:52:42;14.40;;;8.33;;
8317;SDS011;4196;48.926;8.964;2024-01-30T16:55:29;20.17;;;9.83;;
8317;SDS011;4196;48.926;8.964;2024-01-30T16:58:16;19.27;;;9.83;;
8317;SDS011;4196;48.926;8.964;2024-01-30T17:01:04;14.47;;;8.90;;
8317;SDS011;4196;48.926;8.964;2024-01-30T17:03:54;15.87;;;9.17;;
8317;SDS011;4196;48.926;8.964;2024-01-30T17:06:44;14.93;;;9.13;;
8317;SDS011;4196;48.926;8.964;2024-01-30T17:09:32;20.80;;;10.90;;
8317;SDS011;4196;48.926;8.964;2024-01-30T17:12:20;14.47;;;9.13;;
8317;SDS011;4196;48.926;8.964;2024-01-30T17:15:18;17.97;;;9.87;;
8317;SDS011;4196;48.926;8.964;2024-01-30T17:18:08;19.73;;;9.27;;
8317;SDS011;4196;48.926;8.964;2024-01-30T17:20:55;15.80;;;9.67;;